Time;durP1;ratioP1;P1;durP2;ratioP2;P2;SDS_P1;SDS_P2;PMS_P1;PMS_P2;Temp;Humidity;BMP_temperature;BMP_pressure;BME280_temperature;BME280_humidity;BME280_pressure;Samples;Min_cycle;Max_cycle;Signal;HPM_P1;HPM_P2
2023/05/18 00:02:14;;;;;;;1999.90;999.90;;;21.40;91.80;;;;;;5083117;28;20390;-74
2023/05/18 00:04:42;;;;;;;1999.90;999.90;;;21.80;91.40;;;;;;5080546;28;20027;-74
2023/05/18 00:07:10;;;;;;;1999.90;999.90;;;22.20;91.30;;;;;;5089680;28;20062;-73
2023/05/18 00:09:40;;;;;;;1999.90;999.90;;;22.50;91.30;;;;;;5088232;28;20531;-73
2023/05/18 00:12:08;;;;;;;1999.90;999.90;;;23.10;90.80;;;;;;5069136;28;20398;-76
2023/05/18 00:14:36;;;;;;;1999.90;999.90;;;23.80;89.70;;;;;;5072835;28;22031;-76
2023/05/18 00:17:03;;;;;;;1999.90;999.90;;;24.00;88.30;;;;;;5072707;28;20036;-75
2023/05/18 00:19:31;;;;;;;1999.90;999.90;;;24.00;87.90;;;;;;5076500;28;20028;-75
2023/05/18 00:22:01;;;;;;;1999.90;999.90;;;24.10;88.70;;;;;;5082368;28;20040;-75
2023/05/18 00:24:28;;;;;;;1999.90;999.90;;;24.40;88.10;;;;;;5089778;28;21004;-75
2023/05/18 00:26:55;;;;;;;1999.90;999.90;;;24.90;87.40;;;;;;5081150;28;20747;-73
2023/05/18 00:29:22;;;;;;;1999.90;999.90;;;25.00;85.40;;;;;;5077494;28;20036;-74
2023/05/18 00:31:50;;;;;;;1999.90;999.90;;;24.90;86.50;;;;;;5081209;28;20024;-73
2023/05/18 00:34:17;;;;;;;1999.90;999.90;;;24.80;86.30;;;;;;5087597;28;20108;-74
2023/05/18 00:36:44;;;;;;;1999.90;999.90;;;24.90;86.30;;;;;;5086790;28;20035;-75
2023/05/18 00:39:12;;;;;;;1999.90;999.90;;;25.10;87.00;;;;;;5086786;28;20051;-74
2023/05/18 00:41:39;;;;;;;1999.90;999.90;;;25.00;85.50;;;;;;5072326;28;20032;-73
2023/05/18 00:44:07;;;;;;;1999.90;999.90;;;25.40;84.90;;;;;;5080368;28;20040;-73
2023/05/18 00:46:34;;;;;;;1999.90;999.90;;;25.50;86.30;;;;;;5080513;28;20035;-74
2023/05/18 00:49:02;;;;;;;1999.90;999.90;;;25.90;85.30;;;;;;5089170;28;20434;-73
2023/05/18 00:51:31;;;;;;;1999.90;999.90;;;25.90;85.30;;;;;;5082398;28;20029;-74
2023/05/18 00:54:01;;;;;;;1999.90;999.90;;;26.00;84.30;;;;;;5089698;28;20042;-73
2023/05/18 00:56:32;;;;;;;1999.90;999.90;;;26.10;84.60;;;;;;5083354;28;20024;-73
2023/05/18 00:59:02;;;;;;;1999.90;999.90;;;26.50;84.40;;;;;;5087630;28;20401;-74
2023/05/18 01:01:33;;;;;;;1999.90;999.90;;;26.70;83.60;;;;;;5084029;28;20020;-73
2023/05/18 01:04:03;;;;;;;1999.90;999.90;;;26.90;82.30;;;;;;5085540;28;20034;-73
2023/05/18 01:06:34;;;;;;;1999.90;999.90;;;26.90;83.10;;;;;;5083319;28;20016;-73
2023/05/18 01:09:06;;;;;;;1999.90;999.90;;;27.30;83.10;;;;;;5079661;28;20116;-74
2023/05/18 01:11:55;;;;;;;1999.90;999.90;;;27.80;81.70;;;;;;5074103;28;20063;-73
2023/05/18 01:14:44;;;;;;;1999.90;999.90;;;28.30;80.80;;;;;;5085331;28;20059;-74
2023/05/18 01:17:32;;;;;;;1999.90;999.90;;;28.40;81.30;;;;;;5088280;28;20032;-73
2023/05/18 01:20:22;;;;;;;1999.90;999.90;;;28.60;80.30;;;;;;5097895;28;20027;-76
2023/05/18 01:23:01;;;;;;;1999.90;999.90;;;28.80;81.50;;;;;;5095402;28;20024;-74
2023/05/18 01:25:39;;;;;;;1999.90;999.90;;;28.70;79.10;;;;;;5085140;28;20658;-74
2023/05/18 01:28:15;;;;;;;1999.90;999.90;;;28.60;79.70;;;;;;5093967;28;20040;-73
2023/05/18 01:30:44;;;;;;;1999.90;999.90;;;28.60;79.20;;;;;;5077488;28;20020;-74
2023/05/18 01:33:13;;;;;;;1999.90;999.90;;;28.80;79.50;;;;;;5091521;28;21165;-74
2023/05/18 01:35:46;;;;;;;1999.90;999.90;;;28.70;79.10;;;;;;5086345;28;20085;-73
2023/05/18 01:38:19;;;;;;;1999.90;999.90;;;28.60;78.80;;;;;;5086546;28;21085;-73
2023/05/18 01:41:12;;;;;;;1999.90;999.90;;;28.40;79.30;;;;;;5088930;28;20049;-73
2023/05/18 01:44:02;;;;;;;1999.90;999.90;;;28.30;78.30;;;;;;5090332;28;20025;-73
2023/05/18 01:46:57;;;;;;;1999.90;999.90;;;27.80;78.80;;;;;;5092494;28;20069;-73
2023/05/18 01:49:36;;;;;;;1999.90;999.90;;;28.00;80.00;;;;;;5099447;28;20102;-73
2023/05/18 01:52:15;;;;;;;1999.90;999.90;;;28.20;79.70;;;;;;5078225;28;20042;-73
2023/05/18 01:54:49;;;;;;;1999.90;999.90;;;27.90;80.10;;;;;;5088310;28;20028;-73
2023/05/18 01:57:17;;;;;;;1999.90;999.90;;;28.00;80.00;;;;;;5086823;28;20062;-74
2023/05/18 01:59:45;;;;;;;1999.90;999.90;;;28.40;79.20;;;;;;5082841;28;20047;-73
2023/05/18 02:02:13;;;;;;;1999.90;999.90;;;28.50;78.70;;;;;;5079996;28;20032;-74
2023/05/18 02:04:40;;;;;;;1999.90;999.90;;;28.50;79.00;;;;;;5069992;28;22103;-74
2023/05/18 02:07:07;;;;;;;1999.90;999.90;;;28.70;78.10;;;;;;5076741;28;20031;-73
2023/05/18 02:09:35;;;;;;;1999.90;999.90;;;28.20;78.40;;;;;;5081386;28;20020;-74
2023/05/18 02:12:02;;;;;;;1999.90;999.90;;;28.10;78.10;;;;;;5065999;28;20123;-74
2023/05/18 02:14:40;;;;;;;1999.90;999.90;;;27.20;79.50;;;;;;5084775;28;20036;-73
2023/05/18 02:17:07;;;;;;;1999.90;999.90;;;25.80;81.40;;;;;;5063911;28;20429;-74
2023/05/18 02:19:38;;;;;;;1999.90;999.90;;;25.10;82.60;;;;;;5086400;28;20117;-73
2023/05/18 02:22:06;;;;;;;1999.90;999.90;;;25.60;83.50;;;;;;5081064;28;20031;-74
2023/05/18 02:24:34;;;;;;;1999.90;999.90;;;25.90;82.20;;;;;;5081990;28;20054;-73
2023/05/18 02:27:05;;;;;;;1999.90;999.90;;;26.40;81.80;;;;;;5075577;28;20070;-73
2023/05/18 02:29:33;;;;;;;1999.90;999.90;;;26.70;81.20;;;;;;5087840;28;20032;-74
2023/05/18 02:32:00;;;;;;;1999.90;999.90;;;26.60;81.50;;;;;;5078663;28;20031;-72
2023/05/18 02:34:31;;;;;;;1999.90;999.90;;;26.80;81.70;;;;;;5083502;28;20050;-73
2023/05/18 02:37:02;;;;;;;1999.90;999.90;;;26.60;80.90;;;;;;5079381;28;20020;-74
2023/05/18 02:39:30;;;;;;;1999.90;999.90;;;26.50;81.20;;;;;;5087608;28;20114;-72
2023/05/18 02:41:57;;;;;;;1999.90;999.90;;;26.40;81.20;;;;;;5086029;28;20482;-74
2023/05/18 02:44:25;;;;;;;1999.90;999.90;;;26.50;81.30;;;;;;5094311;28;20024;-73
2023/05/18 02:46:52;;;;;;;1999.90;999.90;;;26.60;81.30;;;;;;5075214;28;20043;-74
2023/05/18 02:49:20;;;;;;;1999.90;999.90;;;26.00;81.60;;;;;;5086381;28;20020;-73
2023/05/18 02:51:48;;;;;;;1999.90;999.90;;;24.90;82.00;;;;;;5086001;28;20055;-74
2023/05/18 02:54:15;;;;;;;1999.90;999.90;;;23.90;83.10;;;;;;5084371;28;20494;-74
2023/05/18 02:56:42;;;;;;;1999.90;999.90;;;22.90;84.40;;;;;;5083877;28;20075;-74
2023/05/18 02:59:10;;;;;;;1999.90;999.90;;;22.10;87.00;;;;;;5089605;28;20606;-75
2023/05/18 03:01:39;;;;;;;1999.90;999.90;;;22.00;88.80;;;;;;5086488;28;20420;-72
2023/05/18 03:04:07;;;;;;;1999.90;999.90;;;22.20;88.00;;;;;;5082178;28;20024;-74
2023/05/18 03:06:34;;;;;;;1999.90;999.90;;;22.00;88.30;;;;;;5091559;28;20024;-74
2023/05/18 03:09:02;;;;;;;1999.90;999.90;;;21.90;88.10;;;;;;5098600;28;20034;-73
2023/05/18 03:11:29;;;;;;;1999.90;999.90;;;22.20;87.80;;;;;;5085013;28;20055;-75
2023/05/18 03:13:56;;;;;;;1999.90;999.90;;;21.80;87.50;;;;;;5090280;28;20027;-75
2023/05/18 03:16:27;;;;;;;1999.90;999.90;;;21.40;89.00;;;;;;5086226;28;20402;-74
2023/05/18 03:18:57;;;;;;;1999.90;999.90;;;21.10;89.20;;;;;;5087377;28;20065;-74
2023/05/18 03:21:32;;;;;;;1999.90;999.90;;;21.30;88.90;;;;;;5090805;28;20547;-74
2023/05/18 03:24:00;;;;;;;1999.90;999.90;;;21.60;88.00;;;;;;5086886;28;20043;-73
2023/05/18 03:26:32;;;;;;;1999.90;999.90;;;21.70;88.20;;;;;;5088327;28;20028;-73
2023/05/18 03:29:02;;;;;;;1999.90;999.90;;;21.70;87.60;;;;;;5097781;28;20036;-73
2023/05/18 03:31:30;;;;;;;1999.90;999.90;;;21.50;87.20;;;;;;5085598;28;20157;-73
2023/05/18 03:33:58;;;;;;;1999.90;999.90;;;21.40;87.30;;;;;;5089239;28;20024;-73
2023/05/18 03:36:26;;;;;;;1999.90;999.90;;;21.30;87.30;;;;;;5090124;28;20381;-74
2023/05/18 03:38:54;;;;;;;1999.90;999.90;;;21.10;87.80;;;;;;5094916;28;20028;-74
2023/05/18 03:41:22;;;;;;;1999.90;999.90;;;21.00;87.80;;;;;;5082249;28;20099;-73
2023/05/18 03:43:50;;;;;;;1999.90;999.90;;;20.90;88.10;;;;;;5088371;28;20035;-73
2023/05/18 03:46:17;;;;;;;1999.90;999.90;;;20.70;88.40;;;;;;5081831;28;20028;-73
2023/05/18 03:48:45;;;;;;;1999.90;999.90;;;20.50;88.60;;;;;;5084293;28;20051;-74
2023/05/18 03:51:12;;;;;;;1999.90;999.90;;;20.30;89.40;;;;;;5081263;28;20023;-74
2023/05/18 03:53:41;;;;;;;1999.90;999.90;;;20.00;89.80;;;;;;5081752;28;20039;-73
2023/05/18 03:56:08;;;;;;;1999.90;999.90;;;19.80;90.00;;;;;;5077642;28;20490;-74
2023/05/18 03:58:35;;;;;;;1999.90;999.90;;;19.70;89.50;;;;;;5094662;28;20461;-73
2023/05/18 04:01:03;;;;;;;1999.90;999.90;;;19.80;86.30;;;;;;5086411;28;20071;-74
2023/05/18 04:03:33;;;;;;;1999.90;999.90;;;19.90;86.80;;;;;;5086787;28;20025;-74
2023/05/18 04:06:00;;;;;;;1999.90;999.90;;;19.90;87.30;;;;;;5090190;28;20020;-74
2023/05/18 04:08:29;;;;;;;1999.90;999.90;;;20.00;87.10;;;;;;5081092;28;20076;-74
2023/05/18 04:10:56;;;;;;;1999.90;999.90;;;20.00;87.10;;;;;;5091403;28;20045;-74
2023/05/18 04:13:23;;;;;;;1999.90;999.90;;;20.00;87.00;;;;;;5092429;28;20449;-72
2023/05/18 04:15:51;;;;;;;1999.90;999.90;;;19.90;87.00;;;;;;5086697;28;20043;-73
2023/05/18 04:18:18;;;;;;;1999.90;999.90;;;19.80;87.20;;;;;;5083547;28;20060;-74
2023/05/18 04:20:45;;;;;;;1999.90;999.90;;;19.80;87.60;;;;;;5089579;28;20024;-74
2023/05/18 04:23:13;;;;;;;1999.90;999.90;;;19.70;88.30;;;;;;5093576;28;20032;-75
2023/05/18 04:25:42;;;;;;;1999.90;999.90;;;19.80;88.70;;;;;;5083093;28;20023;-74
2023/05/18 04:28:09;;;;;;;1999.90;999.90;;;19.90;89.40;;;;;;5070384;28;20044;-74
2023/05/18 04:30:40;;;;;;;1999.90;999.90;;;20.00;91.00;;;;;;5086453;28;20031;-73
2023/05/18 04:33:07;;;;;;;1999.90;999.90;;;20.30;91.60;;;;;;5080046;28;20483;-74
2023/05/18 04:35:35;;;;;;;1999.90;999.90;;;20.40;91.60;;;;;;5088972;28;20455;-73
2023/05/18 04:38:03;;;;;;;1999.90;999.90;;;20.30;91.90;;;;;;5086690;28;20028;-73
2023/05/18 04:40:32;;;;;;;1999.90;999.90;;;20.20;91.80;;;;;;5086412;28;20174;-74
2023/05/18 04:43:00;;;;;;;1999.90;999.90;;;20.00;92.20;;;;;;5080807;28;21476;-75
2023/05/18 04:45:28;;;;;;;1999.90;999.90;;;19.80;92.40;;;;;;5085783;28;20025;-74
2023/05/18 04:47:57;;;;;;;1999.90;999.90;;;19.50;92.80;;;;;;5085626;28;20032;-74
2023/05/18 04:50:24;;;;;;;1999.90;999.90;;;19.20;93.30;;;;;;5095751;28;20562;-74
2023/05/18 04:52:52;;;;;;;1999.90;999.90;;;19.00;93.80;;;;;;5087266;28;20036;-74
2023/05/18 04:55:26;;;;;;;1999.90;999.90;;;18.70;94.00;;;;;;5092061;28;20020;-74
2023/05/18 04:57:58;;;;;;;1999.90;999.90;;;18.50;94.20;;;;;;5081823;28;20119;-74
2023/05/18 05:00:27;;;;;;;1999.90;999.90;;;18.30;94.60;;;;;;5090200;28;20044;-73
2023/05/18 05:02:56;;;;;;;1999.90;999.90;;;18.20;95.10;;;;;;5102618;28;20028;-73
2023/05/18 05:05:24;;;;;;;1999.90;999.90;;;18.10;95.20;;;;;;5088220;28;20029;-73
2023/05/18 05:07:53;;;;;;;1999.90;999.90;;;18.10;95.40;;;;;;5097216;28;20032;-73
2023/05/18 05:10:20;;;;;;;1999.90;999.90;;;18.00;95.60;;;;;;5087330;28;20092;-73
2023/05/18 05:12:50;;;;;;;1999.90;999.90;;;18.00;95.70;;;;;;5101234;28;20474;-74
2023/05/18 05:15:18;;;;;;;1999.90;999.90;;;17.90;96.00;;;;;;5087566;28;20039;-73
2023/05/18 05:17:49;;;;;;;1999.90;999.90;;;17.90;96.10;;;;;;5090449;28;20562;-74
2023/05/18 05:20:20;;;;;;;1999.90;999.90;;;17.80;96.10;;;;;;5090988;28;20103;-74
2023/05/18 05:22:47;;;;;;;1999.90;999.90;;;17.70;96.40;;;;;;5084323;28;20015;-73
2023/05/18 05:25:15;;;;;;;1999.90;999.90;;;17.60;96.40;;;;;;5084784;28;20029;-74
2023/05/18 05:27:42;;;;;;;1999.90;999.90;;;17.60;97.00;;;;;;5079659;28;20057;-73
2023/05/18 05:30:10;;;;;;;1999.90;999.90;;;17.50;97.30;;;;;;5089291;28;20040;-73
2023/05/18 05:32:38;;;;;;;1999.90;999.90;;;17.40;97.80;;;;;;5093205;28;20023;-73
2023/05/18 05:35:06;;;;;;;1999.90;999.90;;;17.40;98.00;;;;;;5090517;28;20024;-74
2023/05/18 05:37:33;;;;;;;1999.90;999.90;;;17.40;98.30;;;;;;5081340;28;20096;-72
2023/05/18 05:40:01;;;;;;;1999.90;999.90;;;17.30;98.40;;;;;;5088380;28;20039;-73
2023/05/18 05:42:29;;;;;;;1999.90;999.90;;;17.30;98.60;;;;;;5092086;28;20028;-73
2023/05/18 05:44:56;;;;;;;1999.90;999.90;;;17.30;99.00;;;;;;5084845;28;20504;-71
2023/05/18 05:47:23;;;;;;;1999.90;999.90;;;17.30;99.30;;;;;;5089000;28;20043;-72
2023/05/18 05:49:51;;;;;;;1999.90;999.90;;;17.30;99.50;;;;;;5088637;28;20012;-71
2023/05/18 05:52:18;;;;;;;1999.90;999.90;;;17.30;99.60;;;;;;5092733;28;20592;-72
2023/05/18 05:54:45;;;;;;;1999.90;999.90;;;17.30;99.40;;;;;;5087729;28;20110;-72
2023/05/18 05:57:13;;;;;;;1999.90;999.90;;;17.30;99.30;;;;;;5088107;28;20078;-72
2023/05/18 05:59:40;;;;;;;1999.90;999.90;;;17.30;99.30;;;;;;5087794;28;20661;-72
2023/05/18 06:02:07;;;;;;;1999.90;999.90;;;17.20;99.40;;;;;;5094625;28;20059;-70
2023/05/18 06:04:35;;;;;;;1999.90;999.90;;;17.30;99.40;;;;;;5080143;28;20534;-71
2023/05/18 06:07:02;;;;;;;1999.90;999.90;;;17.20;99.50;;;;;;5084940;28;20347;-72
2023/05/18 06:09:30;;;;;;;1999.90;999.90;;;17.20;99.70;;;;;;5079905;28;20076;-71
2023/05/18 06:11:57;;;;;;;1999.90;999.90;;;17.10;99.80;;;;;;5078706;28;20119;-71
2023/05/18 06:14:24;;;;;;;1999.90;999.90;;;17.10;99.90;;;;;;5090338;28;20111;-71
2023/05/18 06:16:52;;;;;;;1999.90;999.90;;;16.90;99.90;;;;;;5079305;28;20481;-72
2023/05/18 06:19:19;;;;;;;1999.90;999.90;;;16.90;99.90;;;;;;5077947;28;20048;-72
2023/05/18 06:21:46;;;;;;;1999.90;999.90;;;16.80;99.90;;;;;;5078216;28;20012;-72
2023/05/18 06:24:14;;;;;;;1999.90;999.90;;;16.60;99.90;;;;;;5089511;28;20024;-72
2023/05/18 06:26:42;;;;;;;1999.90;999.90;;;16.60;99.90;;;;;;5091397;28;20028;-71
2023/05/18 06:29:09;;;;;;;1999.90;999.90;;;16.40;99.90;;;;;;5087526;28;20027;-70
2023/05/18 06:31:37;;;;;;;1999.90;999.90;;;16.30;99.90;;;;;;5078954;28;20017;-73
2023/05/18 06:34:05;;;;;;;1999.90;999.90;;;16.20;99.90;;;;;;5087199;28;21862;-72
2023/05/18 06:36:33;;;;;;;1999.90;999.90;;;16.10;99.90;;;;;;5085695;28;20463;-73
2023/05/18 06:39:04;;;;;;;1999.90;999.90;;;16.00;99.90;;;;;;5089328;28;20028;-72
2023/05/18 06:41:32;;;;;;;1999.90;999.90;;;15.90;99.90;;;;;;5083990;28;20028;-71
2023/05/18 06:44:01;;;;;;;1999.90;999.90;;;15.80;99.90;;;;;;5088852;28;20034;-72
2023/05/18 06:46:28;;;;;;;1999.90;999.90;;;15.80;99.90;;;;;;5082180;28;20079;-70
2023/05/18 06:48:56;;;;;;;1999.90;999.90;;;15.70;99.90;;;;;;5093364;28;20527;-72
2023/05/18 06:51:23;;;;;;;1999.90;999.90;;;15.60;99.90;;;;;;5063294;28;20048;-73
2023/05/18 06:53:51;;;;;;;1999.90;999.90;;;15.50;99.90;;;;;;5078331;28;20046;-72
2023/05/18 06:56:20;;;;;;;1999.90;999.90;;;15.40;99.90;;;;;;5071373;28;20028;-72
2023/05/18 06:58:48;;;;;;;1999.90;999.90;;;15.30;99.90;;;;;;5084394;28;20031;-74
2023/05/18 07:01:19;;;;;;;1999.90;999.90;;;15.20;99.90;;;;;;5084424;28;20044;-71
2023/05/18 07:03:46;;;;;;;1999.90;999.90;;;15.10;99.90;;;;;;5092453;28;20110;-73
2023/05/18 07:06:14;;;;;;;1999.90;999.90;;;15.00;99.90;;;;;;5077787;28;20961;-72
2023/05/18 07:08:41;;;;;;;1999.90;999.90;;;14.90;99.90;;;;;;5092458;28;20066;-72
2023/05/18 07:11:09;;;;;;;1999.90;999.90;;;14.80;99.90;;;;;;5086594;28;20102;-73
2023/05/18 07:13:36;;;;;;;1999.90;999.90;;;14.70;99.90;;;;;;5090491;28;20474;-73
2023/05/18 07:16:04;;;;;;;1999.90;999.90;;;14.60;99.90;;;;;;5087999;28;20103;-72
2023/05/18 07:18:32;;;;;;;1999.90;999.90;;;14.50;99.90;;;;;;5093507;28;20024;-73
2023/05/18 07:21:00;;;;;;;1999.90;999.90;;;14.40;99.90;;;;;;5087623;28;20028;-73
2023/05/18 07:23:27;;;;;;;1999.90;999.90;;;14.40;99.90;;;;;;5079188;28;20051;-72
2023/05/18 07:25:56;;;;;;;1999.90;999.90;;;14.40;99.90;;;;;;5088024;28;20028;-72
2023/05/18 07:28:23;;;;;;;1999.90;999.90;;;14.30;99.90;;;;;;5075071;28;20041;-72
2023/05/18 07:30:51;;;;;;;1999.90;999.90;;;14.30;99.90;;;;;;5074058;28;20059;-72
2023/05/18 07:33:18;;;;;;;1999.90;999.90;;;14.20;99.90;;;;;;5057069;28;20036;-71
2023/05/18 07:35:45;;;;;;;1999.90;999.90;;;14.10;99.90;;;;;;5082365;28;20470;-72
2023/05/18 07:38:13;;;;;;;1999.90;999.90;;;14.10;99.90;;;;;;5069208;28;20075;-70
2023/05/18 07:40:40;;;;;;;1999.90;999.90;;;14.00;99.90;;;;;;5081167;28;20031;-72
2023/05/18 07:43:07;;;;;;;1999.90;999.90;;;13.90;99.90;;;;;;5087857;28;20024;-71
2023/05/18 07:45:38;;;;;;;1999.90;999.90;;;13.90;99.90;;;;;;5053454;28;20169;-72
2023/05/18 07:48:06;;;;;;;1999.90;999.90;;;13.80;99.90;;;;;;5079497;28;20031;-74
2023/05/18 07:50:34;;;;;;;1999.90;999.90;;;13.70;99.90;;;;;;5079548;28;20429;-73
2023/05/18 07:53:07;;;;;;;1999.90;999.90;;;13.70;99.90;;;;;;5091337;28;20111;-72
2023/05/18 07:55:34;;;;;;;1999.90;999.90;;;13.60;99.90;;;;;;5076501;28;20428;-73
2023/05/18 07:58:02;;;;;;;1999.90;999.90;;;13.50;99.90;;;;;;5082892;28;20029;-72
2023/05/18 08:00:30;;;;;;;1999.90;999.90;;;13.50;99.90;;;;;;5081933;28;20133;-72
2023/05/18 08:02:59;;;;;;;1999.90;999.90;;;13.40;99.90;;;;;;5095637;28;20028;-72
2023/05/18 08:05:27;;;;;;;1999.90;999.90;;;13.30;99.90;;;;;;5094386;28;20168;-72
2023/05/18 08:07:55;;;;;;;1999.90;999.90;;;13.30;99.90;;;;;;5081558;28;20035;-72
2023/05/18 08:10:22;;;;;;;1999.90;999.90;;;13.30;99.90;;;;;;5078639;28;20150;-72
2023/05/18 08:12:50;;;;;;;1999.90;999.90;;;13.20;99.90;;;;;;5087658;28;20057;-73
2023/05/18 08:15:17;;;;;;;1999.90;999.90;;;13.30;99.90;;;;;;5085138;28;20035;-73
2023/05/18 08:17:46;;;;;;;1999.90;999.90;;;13.20;99.90;;;;;;5089827;28;20432;-72
2023/05/18 08:20:14;;;;;;;1999.90;999.90;;;13.20;99.90;;;;;;5088418;28;20032;-73
2023/05/18 08:22:41;;;;;;;1999.90;999.90;;;13.20;99.90;;;;;;5092148;28;20020;-73
2023/05/18 08:25:12;;;;;;;1999.90;999.90;;;13.20;99.90;;;;;;5088074;28;20055;-73
2023/05/18 08:27:40;;;;;;;1999.90;999.90;;;13.10;99.90;;;;;;5083625;28;20044;-73
2023/05/18 08:30:08;;;;;;;1999.90;999.90;;;13.10;99.90;;;;;;5084191;28;20359;-73
2023/05/18 08:32:36;;;;;;;1999.90;999.90;;;13.10;99.90;;;;;;5086730;28;20040;-72
2023/05/18 08:35:10;;;;;;;1999.90;999.90;;;13.00;99.90;;;;;;5087705;28;20122;-74
2023/05/18 08:37:38;;;;;;;1999.90;999.90;;;13.00;99.90;;;;;;5087900;28;20024;-72
2023/05/18 08:40:11;;;;;;;1999.90;999.90;;;12.90;99.90;;;;;;5080699;28;20135;-72
2023/05/18 08:42:43;;;;;;;1999.90;999.90;;;12.90;99.90;;;;;;5079525;28;20095;-73
2023/05/18 08:45:54;;;;;;;1999.90;999.90;;;12.80;99.90;;;;;;5092301;28;20310;-73
2023/05/18 08:48:23;;;;;;;1999.90;999.90;;;12.80;99.90;;;;;;5081506;28;20039;-74
2023/05/18 08:50:55;;;;;;;1999.90;999.90;;;12.70;99.90;;;;;;5084222;28;20031;-72
2023/05/18 08:53:25;;;;;;;1999.90;999.90;;;12.60;99.90;;;;;;5086917;28;20125;-75
2023/05/18 08:55:54;;;;;;;1999.90;999.90;;;12.50;99.90;;;;;;5087674;28;20393;-72
2023/05/18 08:58:44;;;;;;;1999.90;999.90;;;12.50;99.90;;;;;;5086504;28;20115;-73
2023/05/18 09:01:12;;;;;;;1999.90;999.90;;;12.40;99.90;;;;;;5068670;28;20205;-72
2023/05/18 09:03:41;;;;;;;1999.90;999.90;;;12.40;99.90;;;;;;5083513;28;20016;-73
2023/05/18 09:06:09;;;;;;;1999.90;999.90;;;12.30;99.90;;;;;;5088299;28;20039;-74
2023/05/18 09:08:37;;;;;;;1999.90;999.90;;;12.20;99.90;;;;;;5086977;28;20106;-74
2023/05/18 09:11:07;;;;;;;1999.90;999.90;;;12.20;99.90;;;;;;5089661;28;20047;-72
2023/05/18 09:13:35;;;;;;;1999.90;999.90;;;12.20;99.90;;;;;;5084459;28;20035;-72
2023/05/18 09:16:03;;;;;;;1999.90;999.90;;;12.10;99.90;;;;;;5086926;28;20474;-72
2023/05/18 09:18:30;;;;;;;1999.90;999.90;;;12.10;99.90;;;;;;5083817;28;20039;-72
2023/05/18 09:20:57;;;;;;;1999.90;999.90;;;12.10;99.90;;;;;;5077255;28;20027;-72
2023/05/18 09:23:25;;;;;;;1999.90;999.90;;;12.10;99.90;;;;;;5088537;28;20060;-72
2023/05/18 09:25:53;;;;;;;1999.90;999.90;;;12.10;99.90;;;;;;5085295;28;20532;-72
2023/05/18 09:28:51;;;;;;;1999.90;999.90;;;12.10;99.90;;;;;;5077011;28;20545;-72
2023/05/18 09:31:20;;;;;;;1999.90;999.90;;;12.00;99.90;;;;;;5083856;28;20040;-72
2023/05/18 09:33:50;;;;;;;1999.90;999.90;;;12.10;99.90;;;;;;5089564;28;20485;-74
2023/05/18 09:36:23;;;;;;;1999.90;999.90;;;12.10;99.90;;;;;;5087133;28;20062;-73
2023/05/18 09:38:52;;;;;;;1999.90;999.90;;;12.10;99.90;;;;;;5085958;28;21557;-73
2023/05/18 09:41:20;;;;;;;1999.90;999.90;;;12.10;99.90;;;;;;5086247;28;20039;-73
2023/05/18 09:43:51;;;;;;;1999.90;999.90;;;12.10;99.90;;;;;;5090877;28;20024;-76
2023/05/18 09:46:20;;;;;;;1999.90;999.90;;;12.20;99.90;;;;;;5087245;28;20036;-74
2023/05/18 09:48:52;;;;;;;1999.90;999.90;;;12.20;99.90;;;;;;5089223;28;20505;-73
2023/05/18 09:51:23;;;;;;;1999.90;999.90;;;12.20;99.90;;;;;;5085089;28;20015;-72
2023/05/18 09:53:55;;;;;;;1999.90;999.90;;;12.30;99.90;;;;;;5089597;28;20027;-72
2023/05/18 09:56:26;;;;;;;1999.90;999.90;;;12.40;99.90;;;;;;5077267;28;20028;-72
2023/05/18 09:58:54;;;;;;;1999.90;999.90;;;12.40;99.90;;;;;;5089565;28;20114;-73
2023/05/18 10:01:22;;;;;;;1999.90;999.90;;;12.50;99.90;;;;;;5082644;28;20056;-74
2023/05/18 10:03:49;;;;;;;1999.90;999.90;;;12.60;99.90;;;;;;5098232;28;20028;-74
2023/05/18 10:06:18;;;;;;;1999.90;999.90;;;12.60;99.90;;;;;;5090240;28;20470;-72
2023/05/18 10:08:51;;;;;;;1999.90;999.90;;;12.70;99.90;;;;;;5091631;28;20040;-74
2023/05/18 10:11:20;;;;;;;1999.90;999.90;;;12.70;99.90;;;;;;5084834;28;20032;-73
2023/05/18 10:13:55;;;;;;;1999.90;999.90;;;12.70;99.90;;;;;;5074394;28;20032;-75
2023/05/18 10:16:25;;;;;;;1999.90;999.90;;;12.70;99.90;;;;;;5084884;28;20124;-74
2023/05/18 10:18:56;;;;;;;1999.90;999.90;;;12.70;99.90;;;;;;5072308;28;20603;-75
2023/05/18 10:21:27;;;;;;;1999.90;999.90;;;12.70;99.90;;;;;;5073055;28;20036;-74
2023/05/18 10:23:57;;;;;;;1999.90;999.90;;;12.70;99.90;;;;;;5080318;28;20505;-74
2023/05/18 10:26:29;;;;;;;1999.90;999.90;;;12.60;99.90;;;;;;5067986;28;20040;-72
2023/05/18 10:28:58;;;;;;;1999.90;999.90;;;12.60;99.90;;;;;;5094534;28;20038;-73
2023/05/18 10:31:26;;;;;;;1999.90;999.90;;;12.50;99.90;;;;;;5091409;28;20069;-72
2023/05/18 10:33:55;;;;;;;1999.90;999.90;;;12.40;99.90;;;;;;5095812;28;20024;-74
2023/05/18 10:36:25;;;;;;;1999.90;999.90;;;12.30;99.90;;;;;;5092956;28;20043;-74
2023/05/18 10:38:53;;;;;;;1999.90;999.90;;;12.20;99.90;;;;;;5089295;28;20040;-73
2023/05/18 10:41:21;;;;;;;1999.90;999.90;;;12.20;99.90;;;;;;5086578;28;20023;-73
2023/05/18 10:43:49;;;;;;;1999.90;999.90;;;12.10;99.90;;;;;;5098113;28;20489;-73
2023/05/18 10:46:17;;;;;;;1999.90;999.90;;;12.00;99.90;;;;;;5079770;28;20039;-74
2023/05/18 10:48:50;;;;;;;1999.90;999.90;;;11.90;99.90;;;;;;5079091;28;20040;-73
2023/05/18 10:51:18;;;;;;;1999.90;999.90;;;11.80;99.90;;;;;;5077266;28;20031;-74
2023/05/18 10:53:46;;;;;;;1999.90;999.90;;;11.70;99.90;;;;;;5078530;28;20346;-73
2023/05/18 10:56:16;;;;;;;1999.90;999.90;;;11.70;99.90;;;;;;5078636;28;20032;-74
2023/05/18 10:58:45;;;;;;;1999.90;999.90;;;11.60;99.90;;;;;;5077640;28;20032;-75
2023/05/18 11:01:15;;;;;;;1999.90;999.90;;;11.60;99.90;;;;;;5084537;28;20126;-73
2023/05/18 11:03:42;;;;;;;1999.90;999.90;;;11.50;99.90;;;;;;5085285;28;20052;-73
2023/05/18 11:06:11;;;;;;;1999.90;999.90;;;11.50;99.90;;;;;;5085875;28;20035;-74
2023/05/18 11:08:52;;;;;;;1999.90;999.90;;;11.40;99.90;;;;;;5084558;28;20075;-73
2023/05/18 11:11:25;;;;;;;1999.90;999.90;;;11.30;99.90;;;;;;5089775;28;20027;-73
2023/05/18 11:13:52;;;;;;;1999.90;999.90;;;11.20;99.90;;;;;;5092253;28;20032;-77
2023/05/18 11:16:20;;;;;;;1999.90;999.90;;;11.20;99.90;;;;;;5087366;28;20024;-74
2023/05/18 11:18:48;;;;;;;1999.90;999.90;;;11.10;99.90;;;;;;5092146;28;20024;-74
2023/05/18 11:21:30;;;;;;;1999.90;999.90;;;11.10;99.90;;;;;;5100914;28;20021;-73
2023/05/18 11:24:20;;;;;;;1999.90;999.90;;;11.00;99.90;;;;;;5090767;28;20027;-76
2023/05/18 11:26:51;;;;;;;1999.90;999.90;;;10.90;99.90;;;;;;5083556;28;20024;-75
2023/05/18 11:29:31;;;;;;;1999.90;999.90;;;10.80;99.90;;;;;;5090602;28;20059;-75
2023/05/18 11:31:59;;;;;;;1999.90;999.90;;;10.70;99.90;;;;;;5098499;28;20098;-74
2023/05/18 11:34:45;;;;;;;1999.90;999.90;;;10.70;99.90;;;;;;5094813;28;20023;-75
2023/05/18 11:37:36;;;;;;;1999.90;999.90;;;10.60;99.90;;;;;;5096023;28;20047;-75
2023/05/18 11:40:24;;;;;;;1999.90;999.90;;;10.60;99.90;;;;;;5095557;28;20031;-74
2023/05/18 11:43:00;;;;;;;1999.90;999.90;;;10.50;99.90;;;;;;5095452;28;20114;-73
2023/05/18 11:45:27;;;;;;;1999.90;999.90;;;10.50;99.90;;;;;;5086789;28;20689;-74
2023/05/18 11:48:01;;;;;;;1999.90;999.90;;;10.40;99.90;;;;;;5098234;28;20496;-73
2023/05/18 11:50:30;;;;;;;1999.90;999.90;;;10.30;99.90;;;;;;5087981;28;20070;-74
2023/05/18 11:53:00;;;;;;;1999.90;999.90;;;10.30;99.90;;;;;;5097809;28;20024;-74
2023/05/18 11:55:38;;;;;;;1999.90;999.90;;;10.30;99.90;;;;;;5081841;28;20031;-74
2023/05/18 11:58:09;;;;;;;1999.90;999.90;;;10.30;99.90;;;;;;5082120;28;20043;-75
2023/05/18 12:00:38;;;;;;;1999.90;999.90;;;10.30;99.90;;;;;;5081488;28;20692;-73
2023/05/18 12:03:06;;;;;;;1999.90;999.90;;;10.30;99.90;;;;;;5098523;28;20034;-74
2023/05/18 12:05:35;;;;;;;1999.90;999.90;;;10.40;99.90;;;;;;5076660;28;20495;-74
2023/05/18 12:08:03;;;;;;;1999.90;999.90;;;10.40;99.90;;;;;;5097103;28;20036;-74
2023/05/18 12:10:31;;;;;;;1999.90;999.90;;;10.40;99.90;;;;;;5095345;28;21232;-74
2023/05/18 12:13:00;;;;;;;1999.90;999.90;;;10.40;99.90;;;;;;5094747;28;20028;-74